Airfield :
LOGIN :

Register | Disclaimer

   EN    FR    IT 

 










Legend :    VFR   Marginal VFR   IFR   Intensive IFR   Very Intensive IFR
Visi :
Ceiling :
>= 8 km
>= 3000ft
5 to 8 km
1000 to 3000 ft
1500m to 5 km
500 to 1000 ft
800 to 1500m
200 to 500 ft
< 800m
< 200 ft
Symbols :   Thunderstorms  Fog  Heavy snow  Heavy precipitations  Wind > 20 kt
SIGMETs :     Misc.  Thunderstorms  Icing  Turbulence  Mountain Waves  Volcanic Ashes






- Airport Elevation : 1079 ft


ETIK - Illesheim Air Base

CURRENT METAR :
  • 230755Z AUTO 00000KT 9999 CLR 17/11 A3000 RMK AO2 SLP160 T01680109 $

EXPIRED METARs :
  • 230655Z AUTO 00000KT 9999 CLR 16/12 A3001 RMK AO2 SLP163 T01580116 $
  • 230555Z AUTO 00000KT 9999 CLR 14/11 A3001 RMK AO2 SLP163 T01360109 10137 20066 52010 $
  • 230455Z AUTO 00000KT 9999 CLR 10/10 A3000 RMK AO2 SLP161 T01010095 $

TAF TAF ETIK
Valid from the 23 at 06:00 until the 24 at 12:00 UTC


230600Z 2306/2412 VRB06KT 9999 FEW060 SCT080 QNH2997INS
BECMG 2315/2316 28009KT 9000 -SHRA SCT040 BKN080 QNH3000INS
TEMPO 2317/2321 28010G15KT 6000 TSRA BKN030CB
BECMG 2400/2401 VRB06KT 6000 RA BKN010 OVC025 QNH3002INS
TEMPO 2404/2408 3200 RA BR BKN005
BECMG 2409/2410 27009KT 8000 -RA BKN015 OVC030 QNH3003INS
BECMG 2411/2412 28009KT 9000 -SHRA BKN020 OVC040 QNH3001INS TX20/2315Z TN10/2404Z



MET'MAP, your aeronautical weather chart ! - Copyright ORBIFLY December 2007 - Disclaimer

ORBIFLY MET'MAP TEAM :

Programming & Development : Alexandra Zaïnal
Original concept : Baudouin d'Aumeries
Technical & hardware support : Manuel Goepfert
Assistance : Marc-Olivier Méhu




SOURCES & CREDITS :

   NOAA